Time;durP1;ratioP1;P1;durP2;ratioP2;P2;SDS_P1;SDS_P2;PMS_P1;PMS_P2;Temp;Humidity;BMP_temperature;BMP_pressure;BME280_temperature;BME280_humidity;BME280_pressure;Samples;Min_cycle;Max_cycle;Signal;HPM_P1;HPM_P2
2022/07/26 00:00:22;;;;;;;5.03;1.02;;;;;;;26.47;38.94;101840.06;5113305;28;20394;-45
2022/07/26 00:02:50;;;;;;;3.63;1.00;;;;;;;26.39;39.32;101861.84;5113247;28;20149;-44
2022/07/26 00:05:19;;;;;;;3.95;1.17;;;;;;;26.23;40.17;101851.94;5113420;28;20032;-44
2022/07/26 00:07:48;;;;;;;3.40;1.10;;;;;;;26.29;39.84;101852.03;5113577;28;20028;-44
2022/07/26 00:10:16;;;;;;;4.85;1.10;;;;;;;26.45;39.33;101858.47;5113295;28;20024;-48
2022/07/26 00:12:45;;;;;;;2.15;0.88;;;;;;;26.59;39.09;101860.44;5112896;28;20024;-44
2022/07/26 00:15:13;;;;;;;4.93;0.93;;;;;;;26.47;39.16;101858.47;5113298;28;20028;-47
2022/07/26 00:17:42;;;;;;;5.00;1.52;;;;;;;26.48;39.31;101866.38;5113497;28;20466;-54
2022/07/26 00:20:11;;;;;;;3.08;1.20;;;;;;;26.27;39.55;101856.38;5113149;28;20386;-48
2022/07/26 00:22:40;;;;;;;5.32;1.40;;;;;;;26.36;39.64;101856.56;5113627;28;20028;-46
2022/07/26 00:25:09;;;;;;;2.90;1.08;;;;;;;26.34;39.68;101852.13;5112911;28;20073;-48
2022/07/26 00:27:38;;;;;;;5.85;1.10;;;;;;;26.44;39.59;101863.69;5113285;28;20074;-45
2022/07/26 00:30:08;;;;;;;5.53;1.38;;;;;;;26.41;39.31;101856.63;5113189;28;20035;-44
2022/07/26 00:32:37;;;;;;;5.22;1.20;;;;;;;26.45;39.20;101855.84;5113202;28;20022;-46
2022/07/26 00:35:06;;;;;;;3.28;0.80;;;;;;;26.51;39.29;101855.91;5113265;28;20077;-45
2022/07/26 00:37:34;;;;;;;4.97;1.20;;;;;;;26.49;39.18;101856.75;5113152;28;20024;-47
2022/07/26 00:40:03;;;;;;;5.25;1.00;;;;;;;26.42;39.37;101847.88;5112821;28;20474;-44
2022/07/26 00:42:31;;;;;;;3.72;1.00;;;;;;;26.51;39.14;101861.19;5113063;28;20061;-44
2022/07/26 00:45:00;;;;;;;5.95;1.48;;;;;;;26.38;39.60;101849.59;5113212;28;20124;-52
2022/07/26 00:47:29;;;;;;;5.55;1.20;;;;;;;26.39;39.55;101853.09;5113333;28;20024;-46
2022/07/26 00:49:56;;;;;;;4.80;0.90;;;;;;;26.41;39.32;101847.84;5094832;28;20529;-47
2022/07/26 00:52:25;;;;;;;2.67;0.90;;;;;;;26.43;39.27;101847.03;5095308;28;20027;-44
2022/07/26 00:54:54;;;;;;;3.95;1.05;;;;;;;26.47;39.30;101843.59;5113076;28;20462;-44
2022/07/26 00:57:24;;;;;;;3.72;1.10;;;;;;;26.40;39.43;101846.97;5095289;28;20492;-47
2022/07/26 00:59:53;;;;;;;2.75;0.90;;;;;;;26.41;39.47;101853.09;5113355;28;20032;-45
2022/07/26 01:02:21;;;;;;;5.88;1.60;;;;;;;26.25;39.86;101855.47;5112679;28;20052;-45
2022/07/26 01:04:50;;;;;;;3.10;0.85;;;;;;;26.28;39.59;101842.38;5113244;28;20131;-46
2022/07/26 01:07:18;;;;;;;3.80;1.00;;;;;;;26.32;39.55;101835.41;5116710;28;20030;-45
2022/07/26 01:09:47;;;;;;;3.42;1.00;;;;;;;26.33;39.67;101842.44;5116834;28;20027;-45
2022/07/26 01:12:16;;;;;;;4.18;1.30;;;;;;;26.40;39.58;101844.34;5116788;28;20356;-44
2022/07/26 01:14:46;;;;;;;2.90;1.00;;;;;;;26.23;40.16;101837.03;5081686;28;20386;-51
2022/07/26 01:17:15;;;;;;;4.55;1.35;;;;;;;26.14;40.22;101833.38;5116590;28;20027;-46
2022/07/26 01:19:43;;;;;;;3.85;1.15;;;;;;;26.19;40.04;101839.59;5116200;28;20111;-48
2022/07/26 01:22:12;;;;;;;7.93;1.40;;;;;;;26.27;39.78;101837.09;5116323;28;20019;-48
2022/07/26 01:24:41;;;;;;;3.72;1.02;;;;;;;26.26;39.84;101838.84;5116325;28;20023;-47
2022/07/26 01:27:09;;;;;;;2.90;1.00;;;;;;;26.22;39.92;101837.91;5116233;28;20114;-45
2022/07/26 01:29:38;;;;;;;2.55;0.82;;;;;;;26.27;39.84;101842.38;5116293;28;20087;-44
2022/07/26 01:32:07;;;;;;;6.07;1.65;;;;;;;26.16;39.95;101822.00;5116441;28;20024;-49
2022/07/26 01:34:35;;;;;;;7.15;1.30;;;;;;;26.28;39.65;101833.63;5115658;28;20483;-46
2022/07/26 01:37:04;;;;;;;2.95;1.05;;;;;;;26.13;39.83;101810.56;5116133;28;20458;-54
2022/07/26 01:39:33;;;;;;;4.43;1.20;;;;;;;26.41;39.58;101837.31;5116285;28;20047;-45
2022/07/26 01:42:01;;;;;;;4.53;1.38;;;;;;;26.34;39.57;101829.34;5115999;28;20410;-44
2022/07/26 01:44:30;;;;;;;4.30;0.95;;;;;;;26.35;39.53;101831.13;5116243;28;20016;-46
2022/07/26 01:46:59;;;;;;;3.13;0.80;;;;;;;26.39;39.64;101834.66;5115960;28;20441;-44
2022/07/26 01:49:27;;;;;;;5.95;1.40;;;;;;;26.37;39.75;101836.38;5097609;28;20109;-47
2022/07/26 01:51:56;;;;;;;3.92;1.08;;;;;;;26.19;39.91;101816.81;5115898;28;20459;-50
2022/07/26 01:54:24;;;;;;;4.75;1.30;;;;;;;26.23;40.03;101829.16;5115445;28;20167;-44
2022/07/26 01:56:53;;;;;;;5.10;1.42;;;;;;;26.34;39.70;101826.72;5115300;28;20023;-45
2022/07/26 01:59:21;;;;;;;3.38;1.00;;;;;;;26.28;39.79;101815.22;5115754;28;20076;-49
2022/07/26 02:01:50;;;;;;;3.67;1.00;;;;;;;26.34;39.66;101828.44;5115504;28;20024;-44
2022/07/26 02:05:00;;;;;;;4.05;1.02;;;;;;;26.29;39.90;101824.88;5115597;28;20493;-44
2022/07/26 02:07:06;;;;;;;3.40;1.00;;;;;;;26.36;39.59;101830.25;5108633;28;20429;-44
2022/07/26 02:09:35;;;;;;;4.90;1.20;;;;;;;26.34;39.61;101824.09;5115214;28;20099;-44
2022/07/26 02:12:03;;;;;;;4.90;1.10;;;;;;;26.31;39.47;101823.16;5115364;28;20073;-44
2022/07/26 02:14:32;;;;;;;2.97;0.80;;;;;;;26.29;39.74;101828.38;5115090;28;20031;-46
2022/07/26 02:17:00;;;;;;;5.40;0.95;;;;;;;26.21;40.08;101828.25;5097110;28;20062;-44
2022/07/26 02:19:30;;;;;;;5.95;1.20;;;;;;;26.23;39.90;101834.41;5115447;28;20030;-46
2022/07/26 02:21:59;;;;;;;3.58;0.88;;;;;;;26.26;39.93;101827.44;5115316;28;20057;-44
2022/07/26 02:24:28;;;;;;;3.28;1.17;;;;;;;26.33;39.63;101824.03;5114463;28;20076;-45
2022/07/26 02:26:57;;;;;;;2.97;1.00;;;;;;;26.30;39.54;101827.50;5096478;28;20034;-44
2022/07/26 02:29:27;;;;;;;3.42;1.00;;;;;;;26.24;39.78;101833.56;5114838;28;20494;-44
2022/07/26 02:31:56;;;;;;;3.85;1.08;;;;;;;26.33;39.82;101840.72;5114989;28;20495;-48
2022/07/26 02:34:24;;;;;;;2.47;0.82;;;;;;;26.38;39.37;101838.16;5114310;28;20051;-45
2022/07/26 02:36:53;;;;;;;4.45;1.10;;;;;;;26.33;39.68;101832.84;5114758;28;20522;-45
2022/07/26 02:39:26;;;;;;;3.53;0.90;;;;;;;26.34;39.75;101838.97;5114817;28;20381;-44
2022/07/26 02:41:57;;;;;;;4.10;1.05;;;;;;;26.20;39.80;101829.09;5114930;28;20489;-44
2022/07/26 02:44:26;;;;;;;4.47;1.50;;;;;;;26.16;39.88;101832.53;5114577;28;20038;-45
2022/07/26 02:46:55;;;;;;;4.20;1.00;;;;;;;26.23;39.99;101834.41;5114375;28;20057;-50
2022/07/26 02:49:23;;;;;;;4.97;1.42;;;;;;;26.16;39.98;101834.28;5096609;28;20027;-44
2022/07/26 02:51:52;;;;;;;5.18;1.13;;;;;;;26.32;39.51;101828.44;5114925;28;20027;-47
2022/07/26 02:54:20;;;;;;;2.58;1.00;;;;;;;26.31;39.51;101818.75;5114594;28;20110;-44
2022/07/26 02:56:49;;;;;;;4.70;1.15;;;;;;;26.26;39.63;101823.06;5114034;28;20054;-48
2022/07/26 02:59:17;;;;;;;4.55;1.10;;;;;;;26.16;39.83;101815.88;5114222;28;20375;-44
2022/07/26 03:01:46;;;;;;;4.15;1.17;;;;;;;26.12;39.84;101817.56;5114328;28;20098;-47
2022/07/26 03:04:15;;;;;;;3.00;0.98;;;;;;;26.14;39.80;101817.59;5114471;28;20043;-47
2022/07/26 03:06:43;;;;;;;3.55;1.15;;;;;;;26.21;39.90;101824.75;5114274;28;20033;-45
2022/07/26 03:09:12;;;;;;;5.38;1.55;;;;;;;26.36;39.62;101824.09;5113765;28;20065;-45
2022/07/26 03:11:40;;;;;;;3.60;1.00;;;;;;;26.31;39.63;101825.78;5114583;28;20021;-45
2022/07/26 03:14:09;;;;;;;3.97;0.95;;;;;;;26.30;39.66;101829.28;5114155;28;20031;-44
2022/07/26 03:16:37;;;;;;;4.55;1.38;;;;;;;26.33;39.65;101818.78;5113941;28;20092;-47
2022/07/26 03:19:06;;;;;;;3.05;1.10;;;;;;;26.26;39.93;101830.94;5114135;28;20482;-47
2022/07/26 03:21:35;;;;;;;4.72;1.27;;;;;;;26.28;39.84;101826.59;5114167;28;20035;-47
2022/07/26 03:24:03;;;;;;;4.25;1.17;;;;;;;26.20;39.92;101825.59;5114156;28;20035;-46
2022/07/26 03:26:32;;;;;;;4.35;1.33;;;;;;;26.14;39.99;101825.47;5113644;28;20020;-46
2022/07/26 03:29:00;;;;;;;4.07;1.30;;;;;;;26.02;40.00;101800.72;5113421;28;20092;-46
2022/07/26 03:31:29;;;;;;;4.60;1.13;;;;;;;26.20;39.79;101818.56;5113903;28;20019;-51
2022/07/26 03:33:57;;;;;;;4.20;1.10;;;;;;;26.26;39.50;101828.31;5113946;28;20126;-45
2022/07/26 03:36:26;;;;;;;2.90;1.00;;;;;;;26.31;39.92;101824.03;5113347;28;20028;-49
2022/07/26 03:39:01;;;;;;;3.15;1.13;;;;;;;26.26;39.85;101816.91;5113857;28;20023;-50
2022/07/26 03:41:30;;;;;;;5.25;0.93;;;;;;;26.19;39.78;101811.53;5113670;28;20031;-45
2022/07/26 03:43:59;;;;;;;2.45;0.88;;;;;;;26.08;40.23;101821.84;5114022;28;20024;-50
2022/07/26 03:46:27;;;;;;;4.93;0.93;;;;;;;26.04;40.44;101821.78;5113652;28;20030;-49
2022/07/26 03:48:56;;;;;;;3.75;0.93;;;;;;;25.99;40.46;101813.81;5113423;28;20477;-49
2022/07/26 03:51:25;;;;;;;4.10;1.23;;;;;;;26.13;40.07;101815.81;5113659;28;20030;-48
2022/07/26 03:53:53;;;;;;;4.18;1.02;;;;;;;26.05;40.32;101807.75;5113488;28;20023;-49
2022/07/26 03:56:31;;;;;;;2.05;0.90;;;;;;;26.05;40.28;101819.19;5113169;28;20039;-49
2022/07/26 03:59:02;;;;;;;3.72;0.95;;;;;;;26.06;40.13;101813.03;5113706;28;20043;-49
2022/07/26 04:01:31;;;;;;;1.88;0.88;;;;;;;26.04;40.25;101827.03;5114172;28;20170;-53
2022/07/26 04:03:59;;;;;;;3.22;0.98;;;;;;;25.96;40.78;101829.50;5113405;28;20546;-49
2022/07/26 04:06:28;;;;;;;3.97;1.42;;;;;;;26.00;40.36;101830.44;5113195;28;20057;-45
2022/07/26 04:08:57;;;;;;;2.88;1.02;;;;;;;26.04;40.15;101829.66;5113472;28;20020;-50
2022/07/26 04:11:25;;;;;;;2.72;0.88;;;;;;;25.96;40.02;101807.63;5113517;28;20099;-48
2022/07/26 04:13:54;;;;;;;4.25;1.05;;;;;;;26.20;40.09;101828.22;5113231;28;20061;-48
2022/07/26 04:16:23;;;;;;;4.28;0.90;;;;;;;26.13;39.88;101819.34;5112709;28;20032;-49
2022/07/26 04:18:51;;;;;;;2.75;0.80;;;;;;;26.09;40.02;101823.63;5095932;28;20084;-50
2022/07/26 04:21:20;;;;;;;4.45;1.35;;;;;;;26.09;40.10;101818.34;5095900;28;20050;-50
2022/07/26 04:23:48;;;;;;;4.00;0.82;;;;;;;26.12;40.04;101811.41;5113568;28;20023;-47
2022/07/26 04:26:17;;;;;;;4.25;1.30;;;;;;;26.14;40.16;101823.75;5113245;28;20028;-52
2022/07/26 04:28:45;;;;;;;3.45;1.20;;;;;;;26.14;39.95;101820.22;5113333;28;20051;-51
2022/07/26 04:31:14;;;;;;;1.35;0.70;;;;;;;26.12;40.07;101821.94;5113157;28;20099;-48
2022/07/26 04:33:43;;;;;;;2.95;0.98;;;;;;;26.12;40.06;101820.22;5113360;28;20024;-47
2022/07/26 04:36:10;;;;;;;3.28;0.90;;;;;;;26.15;39.99;101822.00;5112895;28;20447;-46
2022/07/26 04:38:39;;;;;;;2.65;0.65;;;;;;;26.12;40.09;101830.72;5112433;28;20547;-48
2022/07/26 04:41:07;;;;;;;3.50;1.15;;;;;;;26.14;40.20;101817.59;5115374;28;20056;-47
2022/07/26 04:43:36;;;;;;;2.60;0.88;;;;;;;26.10;39.97;101816.63;5117407;28;20055;-49
2022/07/26 04:46:04;;;;;;;3.65;1.17;;;;;;;26.05;40.27;101824.44;5116796;28;20042;-52
2022/07/26 04:48:33;;;;;;;3.22;0.80;;;;;;;26.04;40.28;101832.28;5117296;28;20023;-52
2022/07/26 04:51:01;;;;;;;3.88;0.85;;;;;;;25.99;40.46;101831.31;5117111;28;20120;-49
2022/07/26 04:53:30;;;;;;;2.50;0.98;;;;;;;25.94;40.06;101829.50;5117188;28;20110;-49
2022/07/26 04:55:58;;;;;;;2.85;0.70;;;;;;;26.00;40.47;101833.97;5116441;28;20091;-45
2022/07/26 04:58:27;;;;;;;3.88;1.08;;;;;;;25.91;40.57;101833.78;5117011;28;20034;-49
2022/07/26 05:00:56;;;;;;;3.13;1.10;;;;;;;25.91;40.41;101834.69;5117016;28;20024;-48
2022/07/26 05:03:24;;;;;;;3.45;1.05;;;;;;;25.90;40.49;101829.38;5116638;28;20047;-47
2022/07/26 05:05:53;;;;;;;3.55;0.88;;;;;;;25.88;40.60;101829.38;5116515;28;20381;-47
2022/07/26 05:08:21;;;;;;;3.22;1.33;;;;;;;25.98;40.57;101842.72;5116952;28;20027;-50
2022/07/26 05:10:50;;;;;;;3.65;1.00;;;;;;;25.93;40.25;101846.13;5116496;28;20026;-47
2022/07/26 05:13:18;;;;;;;1.90;0.77;;;;;;;25.93;40.59;101846.13;5116415;28;20028;-45
2022/07/26 05:15:47;;;;;;;3.47;0.80;;;;;;;25.93;40.60;101848.75;5116256;28;20077;-46
2022/07/26 05:18:16;;;;;;;2.88;1.00;;;;;;;25.91;40.40;101845.22;5117010;28;20420;-47
2022/07/26 05:20:44;;;;;;;3.40;1.00;;;;;;;26.03;40.18;101852.44;5116501;28;20412;-46
2022/07/26 05:23:12;;;;;;;2.17;0.73;;;;;;;26.23;39.50;101847.56;5116201;28;20063;-46
2022/07/26 05:25:40;;;;;;;0.90;0.47;;;;;;;26.27;39.62;101852.88;5097948;28;20032;-49
2022/07/26 05:28:09;;;;;;;4.38;1.17;;;;;;;26.01;40.50;101848.91;5116295;28;20028;-49
2022/07/26 05:30:38;;;;;;;1.23;0.50;;;;;;;25.97;40.59;101857.59;5116363;28;20024;-47
2022/07/26 05:33:06;;;;;;;2.55;0.65;;;;;;;26.06;40.20;101851.59;5116141;28;20195;-45
2022/07/26 05:35:35;;;;;;;2.95;0.90;;;;;;;26.17;39.73;101851.84;5115643;28;20020;-49
2022/07/26 05:38:03;;;;;;;1.67;0.70;;;;;;;26.31;39.58;101849.47;5115390;28;20039;-47
2022/07/26 05:40:32;;;;;;;3.10;0.80;;;;;;;26.34;39.66;101853.03;5115494;28;20032;-47
2022/07/26 05:43:01;;;;;;;4.47;0.82;;;;;;;26.15;39.80;101841.28;5097796;28;20028;-46
2022/07/26 05:45:30;;;;;;;3.08;1.25;;;;;;;26.08;40.09;101849.91;5115848;28;20023;-47
2022/07/26 05:47:58;;;;;;;4.22;1.02;;;;;;;25.96;40.29;101852.31;5115769;28;20034;-45
2022/07/26 05:50:26;;;;;;;3.35;0.85;;;;;;;25.92;40.55;101848.72;5115684;28;20347;-45
2022/07/26 05:52:55;;;;;;;3.30;0.60;;;;;;;25.86;40.56;101833.72;5115337;28;20020;-48
2022/07/26 05:55:23;;;;;;;2.85;1.00;;;;;;;25.98;40.46;101846.22;5115700;28;20023;-48
2022/07/26 05:57:52;;;;;;;6.80;0.75;;;;;;;25.90;40.49;101846.06;5115652;28;20035;-50
2022/07/26 06:00:20;;;;;;;2.33;0.70;;;;;;;26.08;40.24;101849.91;5115661;28;20509;-49
2022/07/26 06:02:49;;;;;;;1.67;0.80;;;;;;;26.11;39.94;101843.78;5115503;28;20054;-53
2022/07/26 06:05:17;;;;;;;4.78;1.00;;;;;;;26.12;39.79;101854.41;5115528;28;20486;-45
2022/07/26 06:07:46;;;;;;;4.03;1.13;;;;;;;26.09;40.12;101860.44;5115395;28;20057;-47
2022/07/26 06:10:14;;;;;;;1.73;0.65;;;;;;;26.23;39.76;101851.94;5097319;28;20032;-51
2022/07/26 06:12:43;;;;;;;3.85;1.23;;;;;;;26.39;39.31;101863.63;5097477;28;20020;-48
2022/07/26 06:15:12;;;;;;;4.00;0.90;;;;;;;26.28;39.85;101868.69;5115118;28;20031;-45
2022/07/26 06:17:41;;;;;;;3.40;0.65;;;;;;;26.22;39.85;101874.72;5115330;28;20080;-52
2022/07/26 06:20:10;;;;;;;3.70;1.23;;;;;;;26.16;40.09;101865.84;5115211;28;20050;-46
2022/07/26 06:22:38;;;;;;;2.88;1.17;;;;;;;26.21;39.98;101862.44;5115127;28;20072;-47
2022/07/26 06:25:07;;;;;;;4.70;0.85;;;;;;;26.36;39.59;101866.19;5097262;28;20181;-52
2022/07/26 06:27:36;;;;;;;2.55;0.60;;;;;;;26.36;39.55;101866.19;5096941;28;20038;-47
2022/07/26 06:30:05;;;;;;;4.35;1.25;;;;;;;26.38;39.70;101869.72;5114827;28;20111;-47
2022/07/26 06:32:34;;;;;;;2.72;0.95;;;;;;;26.51;39.77;101874.34;5115011;28;20030;-46
2022/07/26 06:35:02;;;;;;;2.40;0.98;;;;;;;26.54;39.76;101870.88;5114564;28;20378;-48
2022/07/26 06:37:31;;;;;;;5.35;1.10;;;;;;;26.34;39.93;101852.13;5114850;28;20032;-47
2022/07/26 06:39:59;;;;;;;4.00;0.90;;;;;;;26.48;39.87;101869.00;5114698;28;20533;-44
2022/07/26 06:42:28;;;;;;;5.05;0.77;;;;;;;26.60;39.96;101878.88;5096599;28;20032;-50
2022/07/26 06:44:57;;;;;;;2.33;0.88;;;;;;;26.72;39.50;101874.69;5114173;28;20114;-50
2022/07/26 06:47:25;;;;;;;2.53;0.70;;;;;;;26.76;39.34;101876.47;5096244;28;20057;-49
2022/07/26 06:49:53;;;;;;;2.95;1.23;;;;;;;26.53;40.14;101883.16;5114527;28;20050;-48
2022/07/26 06:52:22;;;;;;;4.25;1.00;;;;;;;26.60;40.03;101880.63;5095993;28;20079;-49
2022/07/26 06:54:51;;;;;;;14.85;1.38;;;;;;;26.60;39.98;101873.59;5114674;28;20026;-47
2022/07/26 06:57:20;;;;;;;3.30;0.90;;;;;;;26.60;39.93;101878.88;5114483;28;20107;-49
2022/07/26 06:59:48;;;;;;;2.15;0.80;;;;;;;26.50;40.06;101880.44;5079625;28;20040;-49
2022/07/26 07:02:17;;;;;;;3.22;1.33;;;;;;;26.56;40.05;101874.41;5114489;28;20067;-47
2022/07/26 07:04:45;;;;;;;6.00;1.02;;;;;;;26.63;39.83;101880.69;5113325;28;20471;-48
2022/07/26 07:07:14;;;;;;;4.10;1.15;;;;;;;26.71;39.87;101891.34;5114186;28;20114;-50
2022/07/26 07:09:43;;;;;;;6.63;0.80;;;;;;;26.74;39.55;101889.63;5114477;28;20067;-44
2022/07/26 07:12:26;;;;;;;3.25;1.05;;;;;;;26.60;39.98;101886.75;5096522;28;20124;-48
2022/07/26 07:14:55;;;;;;;3.28;0.60;;;;;;;26.69;39.82;101896.53;5114464;28;20463;-48
2022/07/26 07:17:23;;;;;;;2.25;0.63;;;;;;;26.52;39.91;101891.03;5114419;28;20111;-48
2022/07/26 07:19:52;;;;;;;3.15;0.93;;;;;;;26.58;39.78;101896.38;5113944;28;20027;-47
2022/07/26 07:22:20;;;;;;;3.97;0.82;;;;;;;26.54;40.04;101882.28;5114388;28;20026;-46
2022/07/26 07:24:49;;;;;;;3.47;1.13;;;;;;;26.65;39.63;101893.00;5095777;28;20024;-45
2022/07/26 07:27:17;;;;;;;2.15;0.60;;;;;;;26.57;40.14;101891.09;5096332;28;20110;-46
2022/07/26 07:29:46;;;;;;;2.75;0.70;;;;;;;26.64;40.01;101893.84;5096249;28;20024;-44
2022/07/26 07:32:15;;;;;;;4.97;0.98;;;;;;;26.54;40.32;101898.06;5114224;28;20034;-45
2022/07/26 07:34:44;;;;;;;3.05;0.95;;;;;;;26.61;40.04;101900.81;5114122;28;20066;-44
2022/07/26 07:37:12;;;;;;;2.60;0.80;;;;;;;26.74;39.87;101904.50;5114081;28;20023;-43
2022/07/26 07:39:41;;;;;;;3.30;0.82;;;;;;;26.84;39.68;101899.47;5096186;28;20023;-44
2022/07/26 07:42:09;;;;;;;4.13;1.25;;;;;;;26.74;40.02;101904.50;5114168;28;20360;-45
2022/07/26 07:44:37;;;;;;;6.00;1.13;;;;;;;26.98;39.22;101906.69;5095843;28;20026;-44
2022/07/26 07:47:05;;;;;;;5.35;1.45;;;;;;;27.07;38.98;101904.19;5113815;28;20063;-44
2022/07/26 07:49:34;;;;;;;3.05;1.00;;;;;;;26.97;39.06;101889.13;5078999;28;20024;-47
2022/07/26 07:52:02;;;;;;;3.33;0.73;;;;;;;26.79;39.58;101892.31;5113858;28;20028;-45
2022/07/26 07:54:31;;;;;;;3.67;0.80;;;;;;;26.81;39.68;101901.16;5113586;28;20015;-44
2022/07/26 07:56:59;;;;;;;2.33;0.90;;;;;;;26.90;39.29;101896.03;5113712;28;20016;-45
2022/07/26 07:59:28;;;;;;;3.42;0.60;;;;;;;26.94;39.29;101902.25;5114127;28;20378;-44
2022/07/26 08:01:56;;;;;;;3.20;0.95;;;;;;;26.84;39.63;101899.47;5113367;28;20020;-45
2022/07/26 08:04:25;;;;;;;3.88;1.05;;;;;;;26.92;39.41;101906.59;5113655;28;20028;-45
2022/07/26 08:06:53;;;;;;;5.93;1.17;;;;;;;26.89;39.58;101910.06;5113540;28;20042;-44
2022/07/26 08:09:22;;;;;;;2.55;0.95;;;;;;;26.90;39.24;101908.31;5114045;28;20027;-44
2022/07/26 08:11:50;;;;;;;3.05;1.00;;;;;;;26.81;39.42;101915.19;5113587;28;20020;-44
2022/07/26 08:14:19;;;;;;;2.50;0.85;;;;;;;26.87;39.24;101911.81;5114257;28;20024;-44
2022/07/26 08:16:48;;;;;;;3.10;0.85;;;;;;;26.84;39.25;101917.88;5117623;28;20027;-45
2022/07/26 08:19:16;;;;;;;3.20;0.80;;;;;;;26.87;39.14;101906.53;5117848;28;20035;-52
2022/07/26 08:21:45;;;;;;;2.50;0.70;;;;;;;27.03;38.96;101902.38;5117681;28;20466;-45
2022/07/26 08:24:14;;;;;;;3.47;0.88;;;;;;;27.13;38.71;101908.66;5117758;28;20028;-47
2022/07/26 08:26:42;;;;;;;1.67;0.70;;;;;;;27.11;38.63;101903.38;5117320;28;20055;-45
2022/07/26 08:29:11;;;;;;;1.35;0.55;;;;;;;27.14;38.58;101913.94;5099581;28;20031;-44
2022/07/26 08:31:40;;;;;;;2.15;0.77;;;;;;;26.96;39.01;101914.56;5117443;28;20024;-45
2022/07/26 08:34:08;;;;;;;2.28;0.70;;;;;;;26.88;39.11;101912.69;5117515;28;20470;-44
2022/07/26 08:36:37;;;;;;;0.85;0.60;;;;;;;26.91;38.97;101916.22;5117574;28;20394;-48
2022/07/26 08:39:06;;;;;;;2.08;0.70;;;;;;;26.80;39.24;101892.41;5117421;28;20060;-44
2022/07/26 08:41:35;;;;;;;2.38;0.68;;;;;;;26.87;39.09;101903.91;5116954;28;20549;-43
2022/07/26 08:44:08;;;;;;;1.80;0.63;;;;;;;27.08;38.14;101911.25;5099559;28;20031;-44
2022/07/26 08:46:39;;;;;;;3.05;0.73;;;;;;;27.09;38.15;101907.75;5117144;28;20431;-44
2022/07/26 08:49:09;;;;;;;1.83;0.60;;;;;;;27.15;38.22;101907.81;5099189;28;20119;-44
2022/07/26 08:51:41;;;;;;;2.28;0.80;;;;;;;27.17;38.13;101913.13;5117551;28;20470;-47
2022/07/26 08:54:12;;;;;;;7.72;0.90;;;;;;;27.04;38.43;101903.28;5117204;28;20463;-43
2022/07/26 08:56:49;;;;;;;3.05;0.98;;;;;;;27.04;37.70;101906.78;5116918;28;20473;-44
2022/07/26 08:59:19;;;;;;;2.90;0.70;;;;;;;27.01;38.50;101901.47;5117147;28;20028;-43
2022/07/26 09:02:07;;;;;;;4.25;0.98;;;;;;;27.14;38.12;101902.53;5082519;28;20028;-43
2022/07/26 09:04:37;;;;;;;3.95;1.00;;;;;;;27.22;38.06;101902.66;5116637;28;20039;-43
2022/07/26 09:07:10;;;;;;;3.22;0.85;;;;;;;27.13;38.18;101900.75;5098821;28;20055;-46
2022/07/26 09:09:57;;;;;;;3.50;0.80;;;;;;;27.06;37.97;101897.16;5098669;28;20020;-46
2022/07/26 09:12:28;;;;;;;4.93;0.70;;;;;;;27.20;37.73;101904.38;5116622;28;20478;-50
2022/07/26 09:14:57;;;;;;;6.18;0.60;;;;;;;27.18;37.80;101904.34;5098548;28;20038;-43
2022/07/26 09:17:39;;;;;;;2.00;0.60;;;;;;;27.08;38.11;101905.06;5116880;28;20019;-46
2022/07/26 09:20:20;;;;;;;2.10;0.60;;;;;;;26.98;38.20;101877.72;5116984;28;20170;-44
2022/07/26 09:22:58;;;;;;;1.77;0.73;;;;;;;27.29;37.46;101909.78;5116827;28;20111;-44
2022/07/26 09:25:29;;;;;;;2.55;0.52;;;;;;;27.20;37.74;101901.72;5116324;28;20020;-52
2022/07/26 09:27:59;;;;;;;2.13;0.75;;;;;;;27.12;37.88;101910.44;5097909;28;20082;-44
2022/07/26 09:30:29;;;;;;;3.53;1.00;;;;;;;27.09;38.00;101901.56;5116461;28;20020;-44
2022/07/26 09:33:07;;;;;;;2.88;0.82;;;;;;;27.18;37.41;101906.09;5116542;28;20023;-49
2022/07/26 09:35:37;;;;;;;3.28;0.70;;;;;;;27.34;37.38;101908.06;5097889;28;20020;-45
2022/07/26 09:38:15;;;;;;;5.88;0.80;;;;;;;27.39;37.11;101901.13;5116419;28;20038;-43
2022/07/26 09:40:44;;;;;;;4.13;0.70;;;;;;;27.25;37.23;101877.22;5115866;28;20038;-47
2022/07/26 09:43:15;;;;;;;2.08;0.50;;;;;;;27.30;37.56;101901.88;5116194;28;20039;-48
2022/07/26 09:45:43;;;;;;;2.10;0.50;;;;;;;27.21;37.23;101901.78;5115897;28;20035;-43
2022/07/26 09:48:12;;;;;;;2.95;0.50;;;;;;;27.34;37.03;101910.72;5097761;28;20039;-45
2022/07/26 09:50:47;;;;;;;2.33;0.50;;;;;;;27.28;37.14;101914.16;5116077;28;20020;-50
2022/07/26 09:53:16;;;;;;;2.88;0.75;;;;;;;27.33;36.98;101911.56;5115813;28;20108;-47
2022/07/26 09:55:45;;;;;;;3.40;0.73;;;;;;;27.35;37.03;101909.84;5115542;28;20538;-48
2022/07/26 09:58:15;;;;;;;2.92;0.70;;;;;;;27.30;36.43;101916.81;5115748;28;20039;-44
2022/07/26 10:00:44;;;;;;;1.77;0.43;;;;;;;27.40;36.04;101913.44;5116039;28;20036;-46
2022/07/26 10:03:13;;;;;;;2.40;0.65;;;;;;;27.57;35.28;101920.72;5115179;28;20039;-44
2022/07/26 10:05:42;;;;;;;2.17;0.65;;;;;;;27.55;35.29;101907.50;5115461;28;20406;-45
2022/07/26 10:08:12;;;;;;;2.17;0.68;;;;;;;27.55;35.66;101914.53;5115343;28;20032;-43
2022/07/26 10:11:04;;;;;;;2.03;0.60;;;;;;;27.55;35.72;101915.41;5115918;28;20498;-44
2022/07/26 10:13:32;;;;;;;2.92;0.60;;;;;;;27.53;35.80;101913.63;5107951;28;20035;-45
2022/07/26 10:16:02;;;;;;;3.22;0.60;;;;;;;27.50;36.07;101913.56;5115423;28;20360;-44
2022/07/26 10:18:39;;;;;;;0.95;0.50;;;;;;;27.47;36.25;101913.56;5096926;28;20031;-44
2022/07/26 10:21:16;;;;;;;1.67;0.57;;;;;;;27.46;35.95;101917.94;5115335;28;20118;-46
2022/07/26 10:23:47;;;;;;;1.95;0.65;;;;;;;27.51;34.73;101904.81;5115457;28;20027;-43
2022/07/26 10:26:34;;;;;;;4.60;0.95;;;;;;;27.44;35.44;101910.00;5115207;28;20024;-44
2022/07/26 10:29:23;;;;;;;4.85;0.60;;;;;;;27.29;35.01;101905.38;5109918;28;20046;-44
2022/07/26 10:32:20;;;;;;;2.53;0.43;;;;;;;27.38;35.87;101907.25;5115337;28;20055;-47
2022/07/26 10:34:49;;;;;;;0.73;0.38;;;;;;;27.49;34.98;101907.44;5114780;28;20023;-44
2022/07/26 10:37:26;;;;;;;1.80;0.50;;;;;;;27.44;35.17;101891.53;5115168;28;20485;-45
2022/07/26 10:40:18;;;;;;;0.50;0.40;;;;;;;27.64;34.73;101909.38;5115165;28;20042;-43
2022/07/26 10:42:47;;;;;;;0.88;0.50;;;;;;;27.70;34.10;101898.03;5096725;28;20016;-44
2022/07/26 10:45:18;;;;;;;4.15;0.55;;;;;;;27.72;34.38;101906.81;5114948;28;20474;-50
2022/07/26 10:48:15;;;;;;;1.98;0.65;;;;;;;27.60;34.96;101903.19;5096326;28;20028;-48
2022/07/26 10:50:46;;;;;;;1.75;0.60;;;;;;;27.62;33.88;101903.22;5110010;28;20446;-44
2022/07/26 10:53:22;;;;;;;1.65;0.47;;;;;;;27.62;34.47;101912.84;5096617;28;20019;-46
2022/07/26 10:55:56;;;;;;;2.33;0.60;;;;;;;27.66;34.67;101914.69;5114722;28;20016;-48
2022/07/26 10:58:27;;;;;;;0.83;0.47;;;;;;;27.57;34.81;101902.25;5114451;28;20484;-43
2022/07/26 11:00:59;;;;;;;2.40;0.70;;;;;;;27.56;34.69;101908.41;5114683;28;20272;-43
2022/07/26 11:03:45;;;;;;;3.08;0.93;;;;;;;27.49;34.88;101901.25;5096386;28;20116;-44
2022/07/26 11:06:15;;;;;;;1.13;0.38;;;;;;;27.49;34.75;101903.91;5114624;28;20027;-43
2022/07/26 11:08:45;;;;;;;4.47;1.02;;;;;;;27.61;34.33;101904.06;5114478;28;20024;-49
2022/07/26 11:11:14;;;;;;;2.67;0.88;;;;;;;27.60;34.20;101902.31;5096305;28;20027;-49
2022/07/26 11:13:43;;;;;;;3.25;0.82;;;;;;;27.55;34.31;101891.69;5114463;28;20102;-44
2022/07/26 11:16:11;;;;;;;3.15;0.85;;;;;;;27.52;34.61;101891.66;5114308;28;20492;-44
2022/07/26 11:18:40;;;;;;;1.63;0.60;;;;;;;27.55;34.33;101881.13;5114548;28;20031;-44
2022/07/26 11:21:11;;;;;;;3.75;0.70;;;;;;;27.51;33.77;101886.34;5113959;28;20102;-52
2022/07/26 11:23:42;;;;;;;1.52;0.60;;;;;;;27.56;34.41;101888.19;5079377;28;20031;-46
2022/07/26 11:26:20;;;;;;;4.00;0.75;;;;;;;27.56;34.47;101889.94;5113582;28;20020;-47
2022/07/26 11:28:54;;;;;;;3.22;0.80;;;;;;;27.48;33.87;101883.69;5113637;28;20173;-44
2022/07/26 11:31:25;;;;;;;2.67;0.77;;;;;;;27.53;33.63;101888.16;5114021;28;20063;-44
2022/07/26 11:33:54;;;;;;;4.20;1.42;;;;;;;27.64;34.04;101892.69;5096260;28;20024;-45
2022/07/26 11:36:42;;;;;;;2.55;1.00;;;;;;;27.57;33.66;101884.69;5113884;28;20110;-44